createdAt,value
2022-12-05T00:00:33.538Z,976.01
2022-12-05T00:01:33.611Z,976.03
2022-12-05T00:02:33.596Z,976.05
2022-12-05T00:03:33.488Z,976.11
2022-12-05T00:04:33.570Z,976.03
2022-12-05T00:05:33.536Z,976.09
2022-12-05T00:06:33.499Z,976.11
2022-12-05T00:07:33.511Z,976.13
2022-12-05T00:08:33.427Z,976.15
2022-12-05T00:09:33.435Z,976.10
2022-12-05T00:10:33.440Z,976.08
2022-12-05T00:11:33.417Z,976.10
2022-12-05T00:12:33.380Z,976.08
2022-12-05T00:13:33.384Z,976.13
2022-12-05T00:14:33.372Z,976.07
2022-12-05T00:15:33.353Z,976.06
2022-12-05T00:16:33.421Z,976.11
2022-12-05T00:17:33.308Z,976.07
2022-12-05T00:18:33.326Z,976.15
2022-12-05T00:19:34.339Z,976.16
2022-12-05T00:20:33.355Z,976.11
2022-12-05T00:21:33.290Z,976.14
2022-12-05T00:22:33.289Z,976.17
2022-12-05T00:23:33.248Z,976.13
2022-12-05T00:24:34.260Z,976.10
2022-12-05T00:25:33.249Z,976.16
2022-12-05T00:26:33.218Z,976.19
2022-12-05T00:27:33.228Z,976.25
2022-12-05T00:28:33.230Z,976.25
2022-12-05T00:29:33.167Z,976.26
2022-12-05T00:30:33.189Z,976.27
2022-12-05T00:31:33.187Z,976.25
2022-12-05T00:32:34.125Z,976.24
2022-12-05T00:33:33.120Z,976.29
2022-12-05T00:34:33.123Z,976.18
2022-12-05T00:35:33.127Z,976.20
2022-12-05T00:36:33.083Z,976.25
2022-12-05T00:37:33.096Z,976.26
2022-12-05T00:38:33.075Z,976.23
2022-12-05T00:39:33.048Z,976.28
2022-12-05T00:40:33.052Z,976.27
2022-12-05T00:41:33.028Z,976.29
2022-12-05T00:42:33.032Z,976.22
2022-12-05T00:43:32.972Z,976.30
2022-12-05T00:44:32.982Z,976.28
2022-12-05T00:45:34.026Z,976.31
2022-12-05T00:46:33.016Z,976.30
2022-12-05T00:47:32.960Z,976.34
2022-12-05T00:48:32.902Z,976.31
2022-12-05T00:49:32.908Z,976.34
2022-12-05T00:50:33.887Z,976.36
2022-12-05T00:51:32.880Z,976.43
2022-12-05T00:52:33.870Z,976.38
2022-12-05T00:53:32.850Z,976.43
2022-12-05T00:54:32.845Z,976.44
2022-12-05T00:55:33.831Z,976.41
2022-12-05T00:56:32.814Z,976.41
2022-12-05T00:57:32.823Z,976.48
2022-12-05T00:58:32.783Z,976.43
2022-12-05T00:59:32.797Z,976.46
2022-12-05T01:00:33.747Z,976.45
2022-12-05T01:01:33.049Z,976.44
2022-12-05T01:02:32.790Z,976.51
2022-12-05T01:03:32.784Z,976.57
2022-12-05T01:04:32.739Z,976.47
2022-12-05T01:05:32.713Z,976.51
2022-12-05T01:06:32.713Z,976.51
2022-12-05T01:07:32.744Z,976.53
2022-12-05T01:08:32.693Z,976.58
2022-12-05T01:09:32.646Z,976.55
2022-12-05T01:10:32.665Z,976.58
2022-12-05T01:11:39.273Z,976.56
2022-12-05T01:12:33.646Z,976.63
2022-12-05T01:13:32.595Z,976.71
2022-12-05T01:14:32.575Z,976.67
2022-12-05T01:15:32.566Z,976.67
2022-12-05T01:16:33.567Z,976.65
2022-12-05T01:17:32.579Z,976.67
2022-12-05T01:18:32.527Z,976.70
2022-12-05T01:19:32.523Z,976.66
2022-12-05T01:20:32.522Z,976.67
2022-12-05T01:21:33.494Z,976.71
2022-12-05T01:22:32.513Z,976.71
2022-12-05T01:23:33.465Z,976.73
2022-12-05T01:24:32.434Z,976.77
2022-12-05T01:25:32.449Z,976.70
2022-12-05T01:26:32.448Z,976.78
2022-12-05T01:27:32.435Z,976.76
2022-12-05T01:28:33.450Z,976.76
2022-12-05T01:29:32.407Z,976.82
2022-12-05T01:30:32.376Z,976.75
2022-12-05T01:31:32.493Z,976.75
2022-12-05T01:32:32.383Z,976.73
2022-12-05T01:33:32.351Z,976.81
2022-12-05T01:34:32.321Z,976.83
2022-12-05T01:35:32.373Z,976.76
2022-12-05T01:36:33.294Z,976.79
2022-12-05T01:37:32.301Z,976.79
2022-12-05T01:38:32.283Z,976.84
2022-12-05T01:39:32.259Z,976.86
2022-12-05T01:40:36.527Z,976.86
2022-12-05T01:41:33.226Z,976.92
2022-12-05T01:42:32.251Z,976.89
2022-12-05T01:43:32.215Z,976.88
2022-12-05T01:44:32.194Z,976.92
2022-12-05T01:45:32.220Z,976.90
2022-12-05T01:46:33.156Z,976.91
2022-12-05T01:47:33.141Z,976.89
2022-12-05T01:48:32.176Z,976.99
2022-12-05T01:49:32.157Z,977.00
2022-12-05T01:50:32.156Z,976.98
2022-12-05T01:51:32.117Z,977.01
2022-12-05T01:52:32.119Z,977.04
2022-12-05T01:53:32.085Z,977.08
2022-12-05T01:54:32.065Z,977.13
2022-12-05T01:55:32.160Z,977.08
2022-12-05T01:56:32.058Z,977.09
2022-12-05T01:57:32.035Z,977.12
2022-12-05T01:58:32.065Z,977.14
2022-12-05T01:59:32.007Z,977.16
2022-12-05T02:00:32.104Z,977.17
2022-12-05T02:01:32.019Z,977.22
2022-12-05T02:02:32.026Z,977.19
2022-12-05T02:03:31.965Z,977.24
2022-12-05T02:04:31.939Z,977.26
2022-12-05T02:05:32.063Z,977.21
2022-12-05T02:06:31.952Z,977.25
2022-12-05T02:07:31.933Z,977.26
2022-12-05T02:08:31.897Z,977.25
2022-12-05T02:09:31.872Z,977.23
2022-12-05T02:10:32.001Z,977.23
2022-12-05T02:11:31.858Z,977.29
2022-12-05T02:12:31.829Z,977.20
2022-12-05T02:13:31.834Z,977.20
2022-12-05T02:14:31.853Z,977.23
2022-12-05T02:15:31.803Z,977.19
2022-12-05T02:16:31.829Z,977.25
2022-12-05T02:17:31.801Z,977.28
2022-12-05T02:18:31.768Z,977.24
2022-12-05T02:19:31.741Z,977.32
2022-12-05T02:20:31.731Z,977.35
2022-12-05T02:21:31.719Z,977.34
2022-12-05T02:22:31.720Z,977.34
2022-12-05T02:23:31.700Z,977.34
2022-12-05T02:24:31.710Z,977.40
2022-12-05T02:25:31.682Z,977.45
2022-12-05T02:26:31.691Z,977.42
2022-12-05T02:27:31.693Z,977.41
2022-12-05T02:28:31.771Z,977.47
2022-12-05T02:29:31.709Z,977.44
2022-12-05T02:30:31.658Z,977.45
2022-12-05T02:31:31.730Z,977.45
2022-12-05T02:32:31.664Z,977.39
2022-12-05T02:33:31.658Z,977.39
2022-12-05T02:34:31.661Z,977.42
2022-12-05T02:35:31.554Z,977.48
2022-12-05T02:36:31.572Z,977.45
2022-12-05T02:37:33.643Z,977.46
2022-12-05T02:38:31.613Z,977.48
2022-12-05T02:39:31.598Z,977.54
2022-12-05T02:40:31.696Z,977.58
2022-12-05T02:41:31.478Z,977.59
2022-12-05T02:42:31.504Z,977.68
2022-12-05T02:43:31.545Z,977.66
2022-12-05T02:44:31.528Z,977.72
2022-12-05T02:45:31.701Z,977.66
2022-12-05T02:46:31.545Z,977.69
2022-12-05T02:47:31.385Z,977.65
2022-12-05T02:48:31.493Z,977.63
2022-12-05T02:49:31.442Z,977.62
2022-12-05T02:50:31.470Z,977.63
2022-12-05T02:51:31.374Z,977.70
2022-12-05T02:52:31.327Z,977.71
2022-12-05T02:53:31.403Z,977.66
2022-12-05T02:54:33.364Z,977.65
2022-12-05T02:55:31.406Z,977.72
2022-12-05T02:56:31.321Z,977.69
2022-12-05T02:57:31.262Z,977.75
2022-12-05T02:58:31.342Z,977.76
2022-12-05T02:59:31.311Z,977.76
2022-12-05T03:00:31.334Z,977.76
2022-12-05T03:01:31.292Z,977.70
2022-12-05T03:02:31.240Z,977.76
2022-12-05T03:03:31.256Z,977.88
2022-12-05T03:04:31.290Z,977.81
2022-12-05T03:05:31.249Z,977.81
2022-12-05T03:06:31.246Z,977.82
2022-12-05T03:07:31.171Z,977.90
2022-12-05T03:08:31.187Z,977.87
2022-12-05T03:09:31.166Z,977.94
2022-12-05T03:10:31.202Z,977.95
2022-12-05T03:11:31.203Z,977.89
2022-12-05T03:12:52.102Z,977.91
2022-12-05T03:13:31.048Z,977.87
2022-12-05T03:14:31.110Z,977.85
2022-12-05T03:15:31.117Z,977.98
2022-12-05T03:16:31.079Z,977.95
2022-12-05T03:17:31.027Z,977.92
2022-12-05T03:18:31.000Z,977.95
2022-12-05T03:19:31.027Z,977.98
2022-12-05T03:20:31.036Z,977.99
2022-12-05T03:21:31.048Z,977.94
2022-12-05T03:22:30.972Z,978.03
2022-12-05T03:23:30.905Z,978.00
2022-12-05T03:24:31.103Z,978.07
2022-12-05T03:25:30.982Z,978.09
2022-12-05T03:26:31.890Z,978.00
2022-12-05T03:27:30.895Z,977.98
2022-12-05T03:28:30.845Z,977.98
2022-12-05T03:29:34.106Z,978.01
2022-12-05T03:30:31.911Z,977.96
2022-12-05T03:31:30.920Z,977.87
2022-12-05T03:32:30.848Z,977.88
2022-12-05T03:33:30.830Z,977.82
2022-12-05T03:34:30.865Z,977.78
2022-12-05T03:35:31.870Z,977.71
2022-12-05T03:36:30.844Z,977.60
2022-12-05T03:37:30.793Z,977.62
2022-12-05T03:38:30.748Z,977.56
2022-12-05T03:39:30.804Z,977.57
2022-12-05T03:40:30.785Z,977.50
2022-12-05T03:41:31.714Z,977.60
2022-12-05T03:42:30.689Z,977.65
2022-12-05T03:43:30.689Z,977.70
2022-12-05T03:44:30.678Z,977.91
2022-12-05T03:45:32.701Z,977.92
2022-12-05T03:46:30.791Z,977.95
2022-12-05T03:47:31.639Z,978.06
2022-12-05T03:48:30.609Z,978.06
2022-12-05T03:49:33.819Z,978.01
2022-12-05T04:03:21.500Z,978.12
2022-12-05T04:04:23.523Z,978.17
2022-12-05T04:05:21.526Z,978.23
2022-12-05T04:06:21.520Z,978.28
2022-12-05T04:07:28.970Z,978.34
2022-12-05T04:08:28.913Z,978.27
2022-12-05T04:09:30.109Z,978.32
2022-12-05T04:13:01.943Z,978.36
2022-12-05T04:14:11.642Z,978.35
2022-12-05T04:15:09.436Z,978.36
2022-12-05T04:16:09.424Z,978.41
2022-12-05T04:17:09.736Z,978.42
2022-12-05T04:18:09.377Z,978.49
2022-12-05T04:19:09.398Z,978.48
2022-12-05T04:20:01.870Z,978.48
2022-12-05T04:21:09.342Z,978.53
2022-12-05T04:23:03.085Z,978.58
2022-12-05T04:24:10.536Z,978.48
2022-12-05T04:25:16.658Z,978.55
2022-12-05T04:26:10.592Z,978.52
2022-12-05T04:27:10.519Z,978.48
2022-12-05T04:28:10.515Z,978.55
2022-12-05T04:29:10.484Z,978.62
2022-12-05T04:30:11.657Z,978.67
2022-12-05T04:31:10.490Z,978.70
2022-12-05T04:32:10.448Z,978.71
2022-12-05T04:33:10.471Z,978.67
2022-12-05T04:34:10.432Z,978.70
2022-12-05T04:35:12.639Z,978.71
2022-12-05T04:36:10.419Z,978.76
2022-12-05T04:38:14.125Z,978.76
2022-12-05T04:39:17.890Z,978.81
2022-12-05T04:40:23.852Z,978.82
2022-12-05T04:41:14.171Z,978.79
2022-12-05T04:42:21.545Z,978.81
2022-12-05T04:43:15.100Z,978.83
2022-12-05T04:44:21.532Z,978.82
2022-12-05T04:45:15.058Z,978.81
2022-12-05T04:46:35.082Z,978.85
2022-12-05T04:48:23.182Z,978.89
2022-12-05T04:49:31.676Z,978.87
2022-12-05T04:50:23.138Z,978.89
2022-12-05T04:51:23.128Z,978.89
2022-12-05T04:52:23.129Z,978.91
2022-12-05T04:53:23.118Z,978.87
2022-12-05T04:54:23.100Z,978.90
2022-12-05T04:55:23.152Z,978.83
2022-12-05T04:56:23.096Z,978.93
2022-12-05T04:57:23.058Z,978.87
2022-12-05T04:58:23.047Z,978.89
2022-12-05T04:59:23.044Z,978.88
2022-12-05T05:00:23.007Z,978.93
2022-12-05T05:01:23.102Z,978.94
2022-12-05T05:02:30.568Z,978.92
2022-12-05T05:03:23.073Z,978.89
2022-12-05T05:04:22.979Z,978.88
2022-12-05T05:05:23.008Z,978.91
2022-12-05T05:06:22.950Z,978.89
2022-12-05T05:07:22.941Z,978.83
2022-12-05T05:08:22.963Z,978.86
2022-12-05T05:09:22.941Z,978.95
2022-12-05T05:10:22.966Z,978.90
2022-12-05T05:11:22.902Z,978.93
2022-12-05T05:12:22.880Z,978.93
2022-12-05T05:13:22.924Z,978.97
2022-12-05T05:14:23.850Z,978.99
2022-12-05T05:15:22.867Z,978.96
2022-12-05T05:16:22.858Z,979.03
2022-12-05T05:17:22.818Z,979.04
2022-12-05T05:18:22.792Z,978.97
2022-12-05T05:19:22.825Z,979.03
2022-12-05T05:20:22.800Z,978.99
2022-12-05T05:21:22.754Z,979.03
2022-12-05T05:22:22.731Z,979.02
2022-12-05T05:23:22.724Z,978.98
2022-12-05T05:24:22.741Z,979.08
2022-12-05T05:25:22.721Z,979.11
2022-12-05T05:26:55.494Z,979.12
2022-12-05T05:27:29.430Z,979.11
2022-12-05T05:28:26.625Z,979.13
2022-12-05T05:29:25.797Z,979.10
2022-12-05T05:30:27.180Z,979.11
2022-12-05T05:31:24.401Z,979.17
2022-12-05T05:32:26.451Z,979.15
2022-12-05T05:33:24.829Z,979.17
2022-12-05T05:34:45.719Z,979.10
2022-12-05T05:35:31.035Z,979.11
2022-12-05T05:36:23.667Z,979.07
2022-12-05T05:37:32.348Z,979.11
2022-12-05T05:38:26.703Z,979.05
2022-12-05T05:39:25.563Z,979.13
2022-12-05T05:40:24.280Z,979.11
2022-12-05T05:41:23.592Z,979.14
2022-12-05T05:42:23.743Z,979.14
2022-12-05T05:43:22.509Z,979.13
2022-12-05T05:44:22.448Z,979.08
2022-12-05T05:45:22.487Z,979.18
2022-12-05T05:46:22.451Z,979.14
2022-12-05T05:47:22.404Z,979.15
2022-12-05T05:48:22.422Z,979.22
2022-12-05T05:49:22.383Z,979.22
2022-12-05T05:50:22.508Z,979.16
2022-12-05T05:51:22.392Z,979.19
2022-12-05T05:52:22.464Z,979.17
2022-12-05T05:53:22.352Z,979.17
2022-12-05T05:54:22.368Z,979.18
2022-12-05T05:55:22.404Z,979.17
2022-12-05T05:56:23.329Z,979.21
2022-12-05T05:57:22.318Z,979.13
2022-12-05T05:58:43.305Z,979.20
2022-12-05T05:59:22.256Z,979.17
2022-12-05T06:00:23.285Z,979.19
2022-12-05T06:01:22.262Z,979.18
2022-12-05T06:02:23.293Z,979.26
2022-12-05T06:03:22.288Z,979.21
2022-12-05T06:04:22.284Z,979.17
2022-12-05T06:05:22.207Z,979.15
2022-12-05T06:06:22.225Z,979.26
2022-12-05T06:07:22.159Z,979.36
2022-12-05T06:08:22.277Z,979.30
2022-12-05T06:09:22.123Z,979.30
2022-12-05T06:10:23.142Z,979.33
2022-12-05T06:11:25.942Z,979.27
2022-12-05T06:12:22.102Z,979.35
2022-12-05T06:13:22.081Z,979.32
2022-12-05T06:14:22.115Z,979.35
2022-12-05T06:15:22.097Z,979.37
2022-12-05T06:16:23.105Z,979.40
2022-12-05T06:17:22.065Z,979.34
2022-12-05T06:18:22.015Z,979.46
2022-12-05T06:19:22.002Z,979.46
2022-12-05T06:20:22.005Z,979.44
2022-12-05T06:21:23.026Z,979.45
2022-12-05T06:22:21.977Z,979.49
2022-12-05T06:23:21.958Z,979.49
2022-12-05T06:24:21.941Z,979.50
2022-12-05T06:25:21.936Z,979.58
2022-12-05T06:26:21.959Z,979.56
2022-12-05T06:27:21.899Z,979.58
2022-12-05T06:28:21.880Z,979.55
2022-12-05T06:29:25.728Z,979.70
2022-12-05T06:30:23.159Z,979.57
2022-12-05T06:31:21.922Z,979.63
2022-12-05T06:32:22.870Z,979.68
2022-12-05T06:33:21.862Z,979.56
2022-12-05T06:34:21.867Z,979.65
2022-12-05T06:35:21.865Z,979.60
2022-12-05T06:36:23.964Z,979.63
2022-12-05T06:37:21.785Z,979.61
2022-12-05T06:38:21.779Z,979.65
2022-12-05T06:39:21.786Z,979.68
2022-12-05T06:40:22.782Z,979.67
2022-12-05T06:41:22.719Z,979.74
2022-12-05T06:42:21.743Z,979.69
2022-12-05T06:43:21.752Z,979.76
2022-12-05T06:44:21.747Z,979.75
2022-12-05T06:45:22.683Z,979.82
2022-12-05T06:46:21.714Z,979.76
2022-12-05T06:47:21.685Z,979.75
2022-12-05T06:48:21.656Z,979.77
2022-12-05T06:49:25.050Z,979.79
2022-12-05T06:50:22.618Z,979.79
2022-12-05T06:51:21.604Z,979.84
2022-12-05T06:52:21.578Z,979.86
2022-12-05T06:53:21.611Z,979.83
2022-12-05T06:54:22.857Z,979.81
2022-12-05T06:55:21.617Z,979.78
2022-12-05T06:56:21.628Z,979.79
2022-12-05T06:57:21.498Z,979.88
2022-12-05T06:58:21.505Z,979.86
2022-12-05T06:59:21.654Z,979.90
2022-12-05T07:00:21.538Z,979.85
2022-12-05T07:01:21.585Z,979.83
2022-12-05T07:02:21.572Z,979.80
2022-12-05T07:03:25.698Z,979.82
2022-12-05T07:04:21.431Z,979.83
2022-12-05T07:05:21.435Z,979.87
2022-12-05T07:06:21.413Z,979.82
2022-12-05T07:07:21.403Z,979.87
2022-12-05T07:08:22.445Z,979.90
2022-12-05T07:09:22.368Z,979.91
2022-12-05T07:10:21.439Z,979.89
2022-12-05T07:11:21.342Z,979.88
2022-12-05T07:12:21.327Z,979.91
2022-12-05T07:13:21.309Z,979.91
2022-12-05T07:14:46.244Z,979.92
2022-12-05T07:15:22.282Z,979.89
2022-12-05T07:16:21.388Z,979.97
2022-12-05T07:17:21.264Z,979.97
2022-12-05T07:18:21.251Z,979.98
2022-12-05T07:19:21.231Z,980.05
2022-12-05T07:20:21.263Z,980.06
2022-12-05T07:21:21.264Z,980.08
2022-12-05T07:22:21.264Z,980.16
2022-12-05T07:23:21.175Z,980.10
2022-12-05T07:24:21.229Z,980.09
2022-12-05T07:25:21.170Z,980.11
2022-12-05T07:26:21.140Z,980.10
2022-12-05T07:27:26.806Z,980.08
2022-12-05T07:28:22.383Z,980.16
2022-12-05T07:29:21.119Z,980.13
2022-12-05T07:30:21.130Z,980.14
2022-12-05T07:31:21.108Z,980.15
2022-12-05T07:32:21.285Z,980.20
2022-12-05T07:33:21.072Z,980.23
2022-12-05T07:34:21.041Z,980.16
2022-12-05T07:35:21.115Z,980.20
2022-12-05T07:36:21.013Z,980.22
2022-12-05T07:37:21.238Z,980.25
2022-12-05T07:38:20.982Z,980.24
2022-12-05T07:39:21.055Z,980.32
2022-12-05T07:40:21.085Z,980.27
2022-12-05T07:41:20.951Z,980.31
2022-12-05T07:42:21.107Z,980.27
2022-12-05T07:43:20.976Z,980.24
2022-12-05T07:44:20.920Z,980.29
2022-12-05T07:45:21.034Z,980.30
2022-12-05T07:46:21.056Z,980.35
2022-12-05T07:47:21.055Z,980.31
2022-12-05T07:48:21.123Z,980.32
2022-12-05T07:49:20.996Z,980.39
2022-12-05T07:50:21.026Z,980.40
2022-12-05T07:51:20.926Z,980.39
2022-12-05T07:52:20.913Z,980.46
2022-12-05T07:53:20.865Z,980.48
2022-12-05T07:54:20.890Z,980.53
2022-12-05T07:55:20.884Z,980.58
2022-12-05T07:56:20.780Z,980.54
2022-12-05T07:57:20.735Z,980.55
2022-12-05T07:58:20.738Z,980.54
2022-12-05T07:59:20.785Z,980.52
2022-12-05T08:00:20.765Z,980.52
2022-12-05T08:01:20.755Z,980.49
2022-12-05T08:02:20.707Z,980.52
2022-12-05T08:03:20.658Z,980.50
2022-12-05T08:04:20.710Z,980.48
2022-12-05T08:05:20.725Z,980.44
2022-12-05T08:06:20.679Z,980.38
2022-12-05T08:07:20.635Z,980.44
2022-12-05T08:08:20.679Z,980.45
2022-12-05T08:09:20.638Z,980.49
2022-12-05T08:10:20.585Z,980.47
2022-12-05T08:11:20.580Z,980.49
2022-12-05T08:12:20.618Z,980.53
2022-12-05T08:13:20.627Z,980.54
2022-12-05T08:14:20.617Z,980.56
2022-12-05T08:15:20.599Z,980.56
2022-12-05T08:16:20.706Z,980.56
2022-12-05T08:17:20.478Z,980.60
2022-12-05T08:18:25.844Z,980.51
2022-12-05T08:19:21.447Z,980.53
2022-12-05T08:20:20.473Z,980.53
2022-12-05T08:21:20.438Z,980.52
2022-12-05T08:22:20.429Z,980.54
2022-12-05T08:23:20.400Z,980.54
2022-12-05T08:24:20.403Z,980.60
2022-12-05T08:25:20.408Z,980.59
2022-12-05T08:26:20.454Z,980.63
2022-12-05T08:27:41.357Z,980.59
2022-12-05T08:28:20.337Z,980.67
2022-12-05T08:29:20.339Z,980.64
2022-12-05T08:30:20.345Z,980.63
2022-12-05T08:31:20.469Z,980.63
2022-12-05T08:32:20.297Z,980.65
2022-12-05T08:33:20.290Z,980.62
2022-12-05T08:34:20.310Z,980.60
2022-12-05T08:35:20.279Z,980.63
2022-12-05T08:36:20.316Z,980.70
2022-12-05T08:37:20.264Z,980.71
2022-12-05T08:38:20.220Z,980.71
2022-12-05T08:39:20.233Z,980.64
2022-12-05T08:40:20.207Z,980.67
2022-12-05T08:41:20.199Z,980.64
2022-12-05T08:42:20.177Z,980.64
2022-12-05T08:43:20.157Z,980.59
2022-12-05T08:44:20.148Z,980.66
2022-12-05T08:45:20.149Z,980.67
2022-12-05T08:46:20.227Z,980.77
2022-12-05T08:47:20.103Z,980.77
2022-12-05T08:48:22.440Z,980.89
2022-12-05T08:49:22.089Z,980.88
2022-12-05T08:50:20.073Z,980.82
2022-12-05T08:51:20.078Z,980.81
2022-12-05T08:52:20.039Z,980.80
2022-12-05T08:53:20.033Z,980.81
2022-12-05T08:54:21.027Z,980.85
2022-12-05T08:55:20.989Z,980.88
2022-12-05T08:56:24.986Z,980.93
2022-12-05T08:57:20.965Z,980.91
2022-12-05T08:58:19.995Z,980.95
2022-12-05T08:59:19.949Z,980.95
2022-12-05T09:00:19.948Z,980.90
2022-12-05T09:01:20.020Z,981.00
2022-12-05T09:02:19.955Z,981.00
2022-12-05T09:03:19.904Z,981.10
2022-12-05T09:04:19.886Z,981.13
2022-12-05T09:05:28.100Z,981.20
2022-12-05T09:06:20.866Z,981.17
2022-12-05T09:07:19.829Z,981.24
2022-12-05T09:08:19.959Z,981.30
2022-12-05T09:09:20.805Z,981.30
2022-12-05T09:10:19.874Z,981.25
2022-12-05T09:11:19.820Z,981.25
2022-12-05T09:12:19.822Z,981.22
2022-12-05T09:13:19.801Z,981.26
2022-12-05T09:14:21.782Z,981.31
2022-12-05T09:15:19.759Z,981.31
2022-12-05T09:16:19.808Z,981.33
2022-12-05T09:17:19.731Z,981.33
2022-12-05T09:18:19.712Z,981.33
2022-12-05T09:19:19.703Z,981.34
2022-12-05T09:20:20.707Z,981.38
2022-12-05T09:21:19.673Z,981.31
2022-12-05T09:22:19.685Z,981.33
2022-12-05T09:23:19.652Z,981.43
2022-12-05T09:24:19.628Z,981.43
2022-12-05T09:25:19.617Z,981.45
2022-12-05T09:26:19.657Z,981.42
2022-12-05T09:27:19.624Z,981.43
2022-12-05T09:28:19.583Z,981.48
2022-12-05T09:29:19.562Z,981.49
2022-12-05T09:30:19.568Z,981.51
2022-12-05T09:31:19.590Z,981.47
2022-12-05T09:32:19.552Z,981.49
2022-12-05T09:33:19.502Z,981.52
2022-12-05T09:34:19.497Z,981.47
2022-12-05T09:35:19.495Z,981.51
2022-12-05T09:36:19.501Z,981.44
2022-12-05T09:37:38.053Z,981.45
2022-12-05T09:38:20.461Z,981.45
2022-12-05T09:39:19.424Z,981.47
2022-12-05T09:40:20.434Z,981.50
2022-12-05T09:41:19.414Z,981.46
2022-12-05T09:42:19.408Z,981.48
2022-12-05T09:43:19.372Z,981.47
2022-12-05T09:44:19.434Z,981.42
2022-12-05T09:45:20.341Z,981.43
2022-12-05T09:46:19.388Z,981.46
2022-12-05T09:47:19.331Z,981.51
2022-12-05T10:03:45.114Z,981.27
2022-12-05T10:04:45.137Z,981.32
2022-12-05T10:05:45.064Z,981.31
2022-12-05T10:06:45.062Z,981.33
2022-12-05T10:07:45.059Z,981.28
2022-12-05T10:08:45.033Z,981.33
2022-12-05T10:09:45.004Z,981.34
2022-12-05T10:10:44.999Z,981.32
2022-12-05T10:11:44.978Z,981.40
2022-12-05T10:12:44.997Z,981.35
2022-12-05T10:13:44.951Z,981.35
2022-12-05T10:14:44.932Z,981.30
2022-12-05T10:15:45.896Z,981.36
2022-12-05T10:16:44.981Z,981.35
2022-12-05T10:17:44.913Z,981.33
2022-12-05T10:18:44.891Z,981.28
2022-12-05T10:19:44.870Z,981.33
2022-12-05T10:20:46.906Z,981.31
2022-12-05T10:21:44.842Z,981.20
2022-12-05T10:22:44.850Z,981.29
2022-12-05T10:24:00.273Z,981.25
2022-12-05T10:24:47.842Z,981.26
2022-12-05T10:25:46.813Z,981.30
2022-12-05T10:26:44.805Z,981.25
2022-12-05T10:27:44.781Z,981.32
2022-12-05T10:28:44.763Z,981.30
2022-12-05T10:29:44.749Z,981.30
2022-12-05T10:30:45.782Z,981.20
2022-12-05T10:31:44.838Z,981.24
2022-12-05T10:32:48.094Z,981.27
2022-12-05T10:33:44.691Z,981.28
2022-12-05T10:34:44.706Z,981.30
2022-12-05T10:35:45.675Z,981.33
2022-12-05T10:36:44.674Z,981.32
2022-12-05T10:37:44.693Z,981.30
2022-12-05T10:38:44.652Z,981.29
2022-12-05T10:39:44.642Z,981.31
2022-12-05T10:40:44.612Z,981.32
2022-12-05T10:41:44.614Z,981.36
2022-12-05T10:42:44.607Z,981.34
2022-12-05T10:43:44.575Z,981.33
2022-12-05T10:44:44.587Z,981.40
2022-12-05T10:45:45.543Z,981.36
2022-12-05T10:46:44.566Z,981.33
2022-12-05T10:47:44.531Z,981.32
2022-12-05T10:48:44.528Z,981.33
2022-12-05T10:49:44.509Z,981.32
2022-12-05T10:50:44.488Z,981.31
2022-12-05T10:51:44.471Z,981.36
2022-12-05T10:52:44.474Z,981.37
2022-12-05T10:53:44.443Z,981.39
2022-12-05T10:54:44.434Z,981.37
2022-12-05T10:55:59.922Z,981.38
2022-12-05T10:56:45.417Z,981.35
2022-12-05T10:57:45.402Z,981.38
2022-12-05T10:58:45.389Z,981.38
2022-12-05T10:59:44.372Z,981.36
2022-12-05T11:00:44.363Z,981.32
2022-12-05T11:01:44.375Z,981.30
2022-12-05T11:02:44.344Z,981.34
2022-12-05T11:03:44.323Z,981.32
2022-12-05T11:04:44.454Z,981.29
2022-12-05T11:05:44.394Z,981.35
2022-12-05T11:06:44.282Z,981.35
2022-12-05T11:07:44.352Z,981.29
2022-12-05T11:09:03.687Z,981.32
2022-12-05T11:09:45.257Z,981.31
2022-12-05T11:10:44.243Z,981.17
2022-12-05T11:11:44.207Z,981.25
2022-12-05T11:12:44.204Z,981.26
2022-12-05T11:13:44.197Z,981.28
2022-12-05T11:14:44.175Z,981.26
2022-12-05T11:15:44.208Z,981.22
2022-12-05T11:16:44.286Z,981.27
2022-12-05T11:17:44.135Z,981.30
2022-12-05T11:18:44.157Z,981.30
2022-12-05T11:19:44.117Z,981.23
2022-12-05T11:20:44.099Z,981.29
2022-12-05T11:21:44.107Z,981.24
2022-12-05T11:22:48.483Z,981.23
2022-12-05T11:23:44.065Z,981.29
2022-12-05T11:24:44.058Z,981.23
2022-12-05T11:25:44.040Z,981.25
2022-12-05T11:26:44.032Z,981.24
2022-12-05T11:27:44.021Z,981.20
2022-12-05T11:28:45.007Z,981.25
2022-12-05T11:29:44.990Z,981.22
2022-12-05T11:30:43.976Z,981.23
2022-12-05T11:31:43.993Z,981.24
2022-12-05T11:32:43.944Z,981.22
2022-12-05T11:33:44.946Z,981.27
2022-12-05T11:34:44.925Z,981.23
2022-12-05T11:35:43.894Z,981.25
2022-12-05T11:36:43.895Z,981.28
2022-12-05T11:37:44.003Z,981.22
2022-12-05T11:38:43.913Z,981.20
2022-12-05T11:39:44.914Z,981.15
2022-12-05T11:40:43.923Z,981.11
2022-12-05T11:41:43.843Z,981.15
2022-12-05T11:42:43.915Z,981.17
2022-12-05T11:43:43.844Z,981.23
2022-12-05T11:44:43.899Z,981.16
2022-12-05T11:46:54.150Z,981.15
2022-12-05T11:47:54.074Z,981.14
2022-12-05T11:48:54.022Z,981.13
2022-12-05T11:49:53.990Z,981.19
2022-12-05T11:50:53.994Z,981.11
2022-12-05T11:51:56.880Z,981.13
2022-12-05T11:52:54.024Z,981.11
2022-12-05T11:53:54.063Z,981.07
2022-12-05T11:55:05.022Z,981.01
2022-12-05T11:55:54.973Z,981.04
2022-12-05T11:56:53.971Z,981.02
2022-12-05T11:57:53.989Z,981.00
2022-12-05T11:58:53.987Z,981.10
2022-12-05T11:59:53.928Z,981.06
2022-12-05T12:00:53.865Z,981.06
2022-12-05T12:01:53.909Z,980.99
2022-12-05T12:02:53.875Z,980.98
2022-12-05T12:03:53.883Z,980.99
2022-12-05T12:04:53.882Z,981.01
2022-12-05T12:05:53.798Z,980.97
2022-12-05T12:06:53.772Z,980.99
2022-12-05T12:07:53.844Z,980.93
2022-12-05T12:08:53.815Z,981.00
2022-12-05T12:09:53.768Z,980.95
2022-12-05T12:10:53.723Z,980.96
2022-12-05T12:11:53.734Z,980.95
2022-12-05T12:12:53.743Z,980.92
2022-12-05T12:13:53.758Z,980.88
2022-12-05T12:14:53.695Z,980.95
2022-12-05T12:15:53.763Z,980.92
2022-12-05T12:16:53.712Z,980.87
2022-12-05T12:17:53.675Z,980.83
2022-12-05T12:18:53.634Z,980.92
2022-12-05T12:19:53.737Z,980.97
2022-12-05T12:20:54.615Z,980.98
2022-12-05T12:21:53.605Z,980.94
2022-12-05T12:22:53.605Z,980.93
2022-12-05T12:23:53.616Z,980.99
2022-12-05T12:24:53.654Z,981.01
2022-12-05T12:25:54.558Z,980.94
2022-12-05T12:26:54.555Z,980.91
2022-12-05T12:27:53.537Z,980.85
2022-12-05T12:28:53.547Z,980.95
2022-12-05T12:29:53.485Z,980.97
2022-12-05T12:30:53.814Z,980.92
2022-12-05T12:31:53.542Z,980.95
2022-12-05T12:32:53.495Z,980.98
2022-12-05T12:33:53.569Z,981.00
2022-12-05T12:34:53.530Z,980.98
2022-12-05T12:35:53.498Z,981.00
2022-12-05T12:37:14.508Z,980.97
2022-12-05T12:37:53.368Z,981.01
2022-12-05T12:38:53.405Z,980.95
2022-12-05T12:39:53.338Z,981.02
2022-12-05T12:40:53.347Z,981.01
2022-12-05T12:41:53.427Z,981.00
2022-12-05T12:42:53.326Z,981.06
2022-12-05T12:43:54.579Z,981.07
2022-12-05T12:44:53.344Z,981.00
2022-12-05T12:45:53.490Z,981.03
2022-12-05T12:46:53.252Z,981.02
2022-12-05T12:47:53.331Z,981.05
2022-12-05T12:48:53.245Z,981.07
2022-12-05T12:49:53.268Z,980.99
2022-12-05T12:50:53.210Z,981.06
2022-12-05T12:51:53.244Z,981.06
2022-12-05T12:52:53.195Z,981.05
2022-12-05T12:53:53.213Z,981.01
2022-12-05T12:55:03.933Z,981.07
2022-12-05T12:55:54.176Z,980.95
2022-12-05T12:56:53.218Z,981.00
2022-12-05T12:57:53.115Z,980.96
2022-12-05T12:58:53.157Z,981.00
2022-12-05T12:59:53.113Z,981.05
2022-12-05T13:00:53.130Z,981.03
2022-12-05T13:01:53.127Z,980.95
2022-12-05T13:02:53.086Z,980.96
2022-12-05T13:03:53.038Z,980.97